Terminal Aerodrome Forecast
Issued by NWS

Home | Current Version | Previous Version | Text Only | Print | Product List | Glossary On
Versions: 1 2 3 4 5 6 7 8 9 10 11 12 13 14 15 16 17
000
FTUS43 KILX 100500
TAFCMI
TAF
KCMI 100526Z 1006/1106 01004KT P6SM SKC
     FM101500 07006KT P6SM SCT050
     FM110200 10005KT P6SM SCT250=

USA.gov is the U.S. government's official web portal to all federal, state and local government web resources and services.